CheckWX is a tool to help pilots better visualize weather data.  It is not intended as a substitute for an official pre-flight weather briefing.

09:27:18 UTC

KHEI METAR
Hettinger Municipal Airport
Hettinger, North Dakota, USA
Current

34 mins ago

KHEI 200853Z AUTO 00000KT 10SM OVC008 M16/M19 A2974 RMK AO2 SNE05 SLP131 P0000 60000 T11611189 56026 $
Observed
Feb-20 @ 08:53 UTC
Visibility
16,093 meters
Flight Rules
IFR
Cloud Levels
  • Overcast at 800' AGL
Temperature
-16°C / 3°F
Dewpoint
-19°C / -2°F
Humidity
78%
Altimeter
29.74" Hg
Pressure
1013.1 hPa
Current Rain
0.01"
Previous

60 mins ago

KHEI 200827Z AUTO 00000KT 10SM OVC009 M17/M19 A2975 RMK AO2 SNE05 P0000 T11671194 $
Observed
Feb-20 @ 08:27 UTC
Visibility
16,093 meters
Flight Rules
IFR
Cloud Levels
  • Overcast at 900' AGL
Temperature
-17°C / 1°F
Dewpoint
-19°C / -2°F
Humidity
85%
Altimeter
29.75" Hg
Pressure
1007.42 hPa
Current Rain
0.01"
Previous

1 hour ago

KHEI 200810Z AUTO 00000KT 8SM BKN011 BKN017 OVC025 M17/M19 A2975 RMK AO2 SNE05 P0000 T11671194 $
Observed
Feb-20 @ 08:10 UTC
Visibility
12,875 meters
Flight Rules
MVFR
Cloud Levels
  • Broken at 1,100' AGL
  • Broken at 1,700' AGL
  • Overcast at 2,500' AGL
Temperature
-17°C / 1°F
Dewpoint
-19°C / -2°F
Humidity
85%
Altimeter
29.75" Hg
Pressure
1007.42 hPa
Current Rain
0.01"